Time;durP1;ratioP1;P1;durP2;ratioP2;P2;SDS_P1;SDS_P2;PMS_P1;PMS_P2;Temp;Humidity;BMP_temperature;BMP_pressure;BME280_temperature;BME280_humidity;BME280_pressure;Samples;Min_cycle;Max_cycle;Signal;HPM_P1;HPM_P2
2024/01/18 00:01:11;;;;;;;;;;;18.40;54.50;;;;;;7316261;19;9277;-66
2024/01/18 00:03:53;;;;;;;;;;;18.50;54.50;;;;;;7317659;19;9004;-67
2024/01/18 00:06:34;;;;;;;;;;;18.60;54.40;;;;;;7315983;19;9834;-67
2024/01/18 00:09:19;;;;;;;;;;;18.60;54.50;;;;;;7318046;19;9230;-66
2024/01/18 00:12:00;;;;;;;;;;;18.70;54.30;;;;;;7317669;19;9854;-67
2024/01/18 00:14:42;;;;;;;;;;;18.70;54.00;;;;;;7318009;19;9174;-67
2024/01/18 00:17:24;;;;;;;;;;;18.70;53.80;;;;;;7314900;19;11530;-67
2024/01/18 00:19:54;;;;;;;;;;;18.70;54.00;;;;;;7317807;19;9206;-67
2024/01/18 00:22:35;;;;;;;;;;;18.80;54.80;;;;;;7316540;19;9011;-66
2024/01/18 00:25:19;;;;;;;;;;;18.80;54.00;;;;;;7318792;19;9199;-67
2024/01/18 00:27:48;;;;;;;;;;;18.90;54.00;;;;;;7317059;19;9244;-67
2024/01/18 00:30:29;;;;;;;;;;;19.00;54.00;;;;;;7317693;19;9251;-67
2024/01/18 00:33:10;;;;;;;;;;;19.10;53.80;;;;;;7316942;19;9259;-66
2024/01/18 00:35:39;;;;;;;;;;;19.20;53.80;;;;;;7317093;19;9469;-66
2024/01/18 00:38:08;;;;;;;;;;;19.30;53.70;;;;;;7312767;19;9444;-67
2024/01/18 00:40:51;;;;;;;;;;;19.30;53.60;;;;;;7315065;19;9269;-67
2024/01/18 00:43:32;;;;;;;;;;;19.30;53.50;;;;;;7316142;19;9515;-67
2024/01/18 00:46:13;;;;;;;;;;;19.30;53.60;;;;;;7317874;19;9226;-67
2024/01/18 00:48:54;;;;;;;;;;;19.30;53.50;;;;;;7316683;19;9193;-66
2024/01/18 00:51:35;;;;;;;;;;;19.30;53.60;;;;;;7317105;19;9646;-67
2024/01/18 00:54:04;;;;;;;;;;;19.30;53.50;;;;;;7316235;19;9636;-67
2024/01/18 00:56:47;;;;;;;;;;;19.30;53.60;;;;;;7317137;19;9270;-67
2024/01/18 00:59:28;;;;;;;;;;;19.20;53.50;;;;;;7317345;19;9277;-66
2024/01/18 01:01:57;;;;;;;;;;;19.20;53.40;;;;;;7316595;19;9654;-66
2024/01/18 01:04:38;;;;;;;;;;;19.20;53.50;;;;;;7315051;19;9247;-66
2024/01/18 01:07:19;;;;;;;;;;;19.10;53.30;;;;;;7317758;19;9299;-67
2024/01/18 01:09:47;;;;;;;;;;;19.10;53.30;;;;;;7312835;19;9743;-67
2024/01/18 01:12:19;;;;;;;;;;;19.10;53.30;;;;;;7316308;19;9238;-66
2024/01/18 01:15:00;;;;;;;;;;;19.00;53.40;;;;;;7315909;19;9232;-67
2024/01/18 01:17:49;;;;;;;;;;;19.00;53.40;;;;;;7315299;19;9503;-66
2024/01/18 01:20:30;;;;;;;;;;;18.90;53.40;;;;;;7316273;19;8944;-67
2024/01/18 01:23:12;;;;;;;;;;;18.80;53.60;;;;;;7314961;19;9186;-67
2024/01/18 01:25:54;;;;;;;;;;;18.80;53.70;;;;;;7315735;19;8944;-66
2024/01/18 01:28:38;;;;;;;;;;;18.70;53.70;;;;;;7316640;19;9491;-67
2024/01/18 01:31:19;;;;;;;;;;;18.70;53.80;;;;;;7315345;19;9004;-67
2024/01/18 01:34:01;;;;;;;;;;;18.60;53.80;;;;;;7316660;19;9206;-66
2024/01/18 01:36:43;;;;;;;;;;;18.60;53.90;;;;;;7314964;19;9250;-67
2024/01/18 01:39:24;;;;;;;;;;;18.50;54.10;;;;;;7314533;19;9253;-66
2024/01/18 01:42:06;;;;;;;;;;;18.50;54.00;;;;;;7315411;19;9457;-66
2024/01/18 01:44:53;;;;;;;;;;;18.40;54.10;;;;;;7319626;19;9179;-66
2024/01/18 01:47:35;;;;;;;;;;;18.40;54.20;;;;;;7318175;19;9177;-66
2024/01/18 01:50:16;;;;;;;;;;;18.40;54.20;;;;;;7321890;19;9289;-67
2024/01/18 01:52:58;;;;;;;;;;;18.40;54.40;;;;;;7324034;19;9929;-67
2024/01/18 01:55:41;;;;;;;;;;;18.30;54.30;;;;;;7324993;19;9328;-67
2024/01/18 01:58:23;;;;;;;;;;;18.30;54.30;;;;;;7324806;19;9955;-67
2024/01/18 02:00:56;;;;;;;;;;;18.30;54.30;;;;;;7321124;19;9262;-66
2024/01/18 02:03:37;;;;;;;;;;;18.30;54.30;;;;;;7321026;19;9278;-67
2024/01/18 02:06:19;;;;;;;;;;;18.30;54.30;;;;;;7320247;19;10267;-66
2024/01/18 02:09:01;;;;;;;;;;;18.30;54.30;;;;;;7322098;19;9301;-68
2024/01/18 02:11:30;;;;;;;;;;;18.30;54.20;;;;;;7319550;19;10727;-67
2024/01/18 02:14:11;;;;;;;;;;;18.30;54.10;;;;;;7321273;19;9220;-66
2024/01/18 02:16:55;;;;;;;;;;;18.40;54.20;;;;;;7321666;19;9278;-66
2024/01/18 02:19:36;;;;;;;;;;;18.50;54.30;;;;;;7320227;19;9372;-66
2024/01/18 02:22:10;;;;;;;;;;;18.50;54.20;;;;;;7321152;19;9308;-66
2024/01/18 02:24:44;;;;;;;;;;;18.50;54.30;;;;;;7319125;19;9622;-66
2024/01/18 02:27:28;;;;;;;;;;;18.60;54.00;;;;;;7320030;19;9270;-66
2024/01/18 02:30:10;;;;;;;;;;;18.70;54.00;;;;;;7320714;19;9206;-67
2024/01/18 02:32:39;;;;;;;;;;;18.70;54.00;;;;;;7318756;19;9830;-66
2024/01/18 02:35:21;;;;;;;;;;;18.70;53.70;;;;;;7319729;19;9246;-66
2024/01/18 02:38:02;;;;;;;;;;;18.70;53.70;;;;;;7322124;19;9455;-66
2024/01/18 02:40:43;;;;;;;;;;;18.80;53.60;;;;;;7317945;19;9331;-66
2024/01/18 02:43:27;;;;;;;;;;;18.80;53.80;;;;;;7316853;19;9904;-66
2024/01/18 02:46:08;;;;;;;;;;;18.90;53.80;;;;;;7321080;19;9257;-66
2024/01/18 02:48:37;;;;;;;;;;;19.00;53.60;;;;;;7319148;19;9605;-66
2024/01/18 02:51:18;;;;;;;;;;;19.10;53.60;;;;;;7320083;19;9170;-66
2024/01/18 02:53:59;;;;;;;;;;;19.10;53.40;;;;;;7320177;19;9492;-66
2024/01/18 02:56:28;;;;;;;;;;;19.20;53.40;;;;;;7319782;19;9127;-67
2024/01/18 02:59:11;;;;;;;;;;;19.20;53.40;;;;;;7318829;19;9406;-67
2024/01/18 03:01:53;;;;;;;;;;;19.20;53.40;;;;;;7317289;19;9861;-66
2024/01/18 03:04:35;;;;;;;;;;;19.20;53.40;;;;;;7318364;19;9315;-67
2024/01/18 03:07:05;;;;;;;;;;;19.20;53.40;;;;;;7320974;19;10723;-66
2024/01/18 03:09:46;;;;;;;;;;;19.20;53.40;;;;;;7318027;19;9242;-66
2024/01/18 03:12:14;;;;;;;;;;;19.20;53.30;;;;;;7317120;19;9169;-67
2024/01/18 03:14:46;;;;;;;;;;;19.20;53.30;;;;;;7318605;19;9118;-66
2024/01/18 03:17:15;;;;;;;;;;;19.10;53.30;;;;;;7319551;19;9555;-67
2024/01/18 03:19:56;;;;;;;;;;;19.10;53.00;;;;;;7319532;19;9230;-66
2024/01/18 03:22:25;;;;;;;;;;;19.10;53.00;;;;;;7317551;19;9235;-67
2024/01/18 03:24:53;;;;;;;;;;;19.10;53.00;;;;;;7318795;19;9541;-67
2024/01/18 03:27:23;;;;;;;;;;;19.00;53.00;;;;;;7319423;19;9353;-66
2024/01/18 03:30:07;;;;;;;;;;;18.90;53.00;;;;;;7319815;19;10156;-66
2024/01/18 03:32:49;;;;;;;;;;;18.90;53.00;;;;;;7317946;19;9193;-66
2024/01/18 03:35:30;;;;;;;;;;;18.90;53.20;;;;;;7319321;19;9631;-66
2024/01/18 03:38:11;;;;;;;;;;;18.80;53.20;;;;;;7319114;19;9269;-66
2024/01/18 03:40:51;;;;;;;;;;;18.80;53.40;;;;;;7317044;19;9040;-67
2024/01/18 03:43:32;;;;;;;;;;;18.70;53.50;;;;;;7317896;19;9268;-66
2024/01/18 03:46:19;;;;;;;;;;;18.70;53.60;;;;;;7319580;19;9245;-67
2024/01/18 03:48:59;;;;;;;;;;;18.60;53.60;;;;;;7317424;19;9207;-67
2024/01/18 03:51:40;;;;;;;;;;;18.50;53.70;;;;;;7317519;19;9222;-67
2024/01/18 03:54:21;;;;;;;;;;;18.50;53.70;;;;;;7319186;19;9230;-66
2024/01/18 03:56:50;;;;;;;;;;;18.50;54.00;;;;;;7318286;19;9254;-67
2024/01/18 03:59:31;;;;;;;;;;;18.40;53.80;;;;;;7311624;19;10226;-67
2024/01/18 04:02:15;;;;;;;;;;;18.30;53.80;;;;;;7318025;19;9340;-66
2024/01/18 04:04:56;;;;;;;;;;;18.30;54.00;;;;;;7317149;19;9618;-66
2024/01/18 04:07:38;;;;;;;;;;;18.30;53.90;;;;;;7318930;19;8949;-66
2024/01/18 04:10:20;;;;;;;;;;;18.30;54.00;;;;;;7315859;19;9295;-66
2024/01/18 04:13:02;;;;;;;;;;;18.30;53.90;;;;;;7315964;19;9222;-66
2024/01/18 04:15:44;;;;;;;;;;;18.30;53.90;;;;;;7317862;19;9283;-66
2024/01/18 04:18:28;;;;;;;;;;;18.30;53.90;;;;;;7316405;19;9266;-67
2024/01/18 04:20:57;;;;;;;;;;;18.30;53.80;;;;;;7318376;19;9410;-66
2024/01/18 04:23:26;;;;;;;;;;;18.30;53.70;;;;;;7314996;19;9226;-66
2024/01/18 04:25:55;;;;;;;;;;;18.40;53.90;;;;;;7317136;19;9527;-66
2024/01/18 04:28:25;;;;;;;;;;;18.50;53.80;;;;;;7317743;19;9332;-67
2024/01/18 04:30:54;;;;;;;;;;;18.50;54.50;;;;;;7318522;19;11215;-67
2024/01/18 04:33:37;;;;;;;;;;;18.60;53.80;;;;;;7317435;19;9636;-66
2024/01/18 04:36:18;;;;;;;;;;;18.60;53.80;;;;;;7317542;19;8944;-66
2024/01/18 04:38:59;;;;;;;;;;;18.70;53.70;;;;;;7312445;19;9276;-67
2024/01/18 04:41:28;;;;;;;;;;;18.70;53.70;;;;;;7318460;19;9249;-66
2024/01/18 04:44:08;;;;;;;;;;;18.70;53.70;;;;;;7316428;19;9010;-66
2024/01/18 04:46:49;;;;;;;;;;;18.80;53.40;;;;;;7317617;19;9551;-66
2024/01/18 04:49:33;;;;;;;;;;;18.80;53.50;;;;;;7316648;19;10152;-67
2024/01/18 04:52:14;;;;;;;;;;;18.80;53.30;;;;;;7315646;19;9359;-67
2024/01/18 04:54:43;;;;;;;;;;;18.80;54.20;;;;;;7316576;19;10777;-66
2024/01/18 04:57:24;;;;;;;;;;;18.80;53.50;;;;;;7314518;19;9885;-66
2024/01/18 05:00:09;;;;;;;;;;;18.90;53.50;;;;;;7317016;19;9249;-66
2024/01/18 05:02:50;;;;;;;;;;;18.90;53.40;;;;;;7316425;19;9266;-66
2024/01/18 05:05:34;;;;;;;;;;;19.00;53.40;;;;;;7316515;19;9840;-66
2024/01/18 05:08:02;;;;;;;;;;;19.00;54.00;;;;;;7315885;19;9230;-67
2024/01/18 05:10:43;;;;;;;;;;;19.10;53.40;;;;;;7316916;19;9595;-66
2024/01/18 05:13:24;;;;;;;;;;;19.10;53.30;;;;;;7314379;19;11568;-67
2024/01/18 05:15:53;;;;;;;;;;;19.10;53.30;;;;;;7316553;19;9521;-68
2024/01/18 05:18:35;;;;;;;;;;;19.10;53.30;;;;;;7317712;19;9334;-66
2024/01/18 05:21:07;;;;;;;;;;;19.00;53.30;;;;;;7314783;19;10548;-67
2024/01/18 05:23:49;;;;;;;;;;;19.10;53.10;;;;;;7315567;19;9566;-66
2024/01/18 05:26:30;;;;;;;;;;;19.10;53.20;;;;;;7320704;19;9254;-67
2024/01/18 05:28:59;;;;;;;;;;;19.00;53.10;;;;;;7322761;19;9262;-67
2024/01/18 05:31:39;;;;;;;;;;;19.00;52.90;;;;;;7318694;19;9546;-66
2024/01/18 05:34:20;;;;;;;;;;;19.00;52.90;;;;;;7321081;19;9460;-67
2024/01/18 05:37:04;;;;;;;;;;;18.90;52.80;;;;;;7321617;19;9281;-66
2024/01/18 05:39:45;;;;;;;;;;;18.90;52.80;;;;;;7320902;19;9543;-67
2024/01/18 05:42:27;;;;;;;;;;;18.90;52.90;;;;;;7321585;19;9360;-66
2024/01/18 05:45:09;;;;;;;;;;;18.80;53.00;;;;;;7320317;19;9478;-66
2024/01/18 05:47:40;;;;;;;;;;;18.80;53.00;;;;;;7321365;19;9457;-66
2024/01/18 05:50:21;;;;;;;;;;;18.70;53.00;;;;;;7321190;19;9741;-67
2024/01/18 05:53:04;;;;;;;;;;;18.70;53.10;;;;;;7320304;19;9542;-66
2024/01/18 05:55:45;;;;;;;;;;;18.60;53.10;;;;;;7320989;19;9319;-67
2024/01/18 05:58:26;;;;;;;;;;;18.60;53.30;;;;;;7322402;19;9923;-66
2024/01/18 06:01:09;;;;;;;;;;;18.50;53.40;;;;;;7320757;19;9360;-66
2024/01/18 06:03:37;;;;;;;;;;;18.50;53.50;;;;;;7320347;19;9492;-67
2024/01/18 06:06:19;;;;;;;;;;;18.40;53.50;;;;;;7319470;19;9231;-67
2024/01/18 06:09:02;;;;;;;;;;;18.40;53.50;;;;;;7318870;19;8940;-67
2024/01/18 06:11:44;;;;;;;;;;;18.40;53.50;;;;;;7319124;19;9048;-67
2024/01/18 06:14:13;;;;;;;;;;;18.30;53.50;;;;;;7321189;19;9628;-67
2024/01/18 06:16:42;;;;;;;;;;;18.40;53.60;;;;;;7319540;19;9223;-67
2024/01/18 06:19:23;;;;;;;;;;;18.30;53.50;;;;;;7322052;19;9209;-67
2024/01/18 06:22:05;;;;;;;;;;;18.40;53.60;;;;;;7321815;19;9551;-67
2024/01/18 06:24:49;;;;;;;;;;;18.40;53.50;;;;;;7320323;19;9313;-66
2024/01/18 06:27:18;;;;;;;;;;;18.50;53.40;;;;;;7319584;19;9214;-66
2024/01/18 06:29:59;;;;;;;;;;;18.50;53.40;;;;;;7321985;19;9275;-67
2024/01/18 06:32:40;;;;;;;;;;;18.50;53.60;;;;;;7321629;19;9218;-67
2024/01/18 06:35:22;;;;;;;;;;;18.50;53.60;;;;;;7318321;19;9280;-67
2024/01/18 06:37:51;;;;;;;;;;;18.60;53.60;;;;;;7320061;19;9246;-67
2024/01/18 06:40:34;;;;;;;;;;;18.80;53.60;;;;;;7319586;19;9241;-67
2024/01/18 06:43:15;;;;;;;;;;;18.90;53.40;;;;;;7321051;19;9188;-67
2024/01/18 06:45:57;;;;;;;;;;;19.00;53.30;;;;;;7319743;19;9226;-67
2024/01/18 06:48:37;;;;;;;;;;;19.10;53.10;;;;;;7321189;19;8944;-67
2024/01/18 06:51:18;;;;;;;;;;;19.20;53.10;;;;;;7320735;19;9412;-66
2024/01/18 06:53:59;;;;;;;;;;;19.20;53.00;;;;;;7321708;19;9270;-67
2024/01/18 06:56:31;;;;;;;;;;;19.30;53.00;;;;;;7322898;19;9473;-67
2024/01/18 06:59:01;;;;;;;;;;;19.30;53.00;;;;;;7322701;19;9335;-66
2024/01/18 07:01:42;;;;;;;;;;;19.30;53.00;;;;;;7320759;19;9285;-67
2024/01/18 07:04:10;;;;;;;;;;;19.30;53.00;;;;;;7321164;19;9546;-67
2024/01/18 07:06:51;;;;;;;;;;;19.30;53.00;;;;;;7318399;19;9498;-74
2024/01/18 07:09:20;;;;;;;;;;;19.20;52.90;;;;;;7320543;19;9408;-74
2024/01/18 07:12:04;;;;;;;;;;;19.20;53.80;;;;;;7320092;19;10941;-74
2024/01/18 07:14:45;;;;;;;;;;;19.20;53.20;;;;;;7319391;19;9439;-74
2024/01/18 07:17:14;;;;;;;;;;;19.20;53.40;;;;;;7318641;19;9249;-74
2024/01/18 07:19:56;;;;;;;;;;;19.20;53.30;;;;;;7320453;19;9142;-74
2024/01/18 07:22:36;;;;;;;;;;;19.10;53.30;;;;;;7320168;19;9447;-66
2024/01/18 07:25:17;;;;;;;;;;;19.10;53.40;;;;;;7314839;19;9018;-65
2024/01/18 07:28:02;;;;;;;;;;;19.10;53.50;;;;;;7317036;19;9325;-65
2024/01/18 07:30:44;;;;;;;;;;;19.00;53.40;;;;;;7317962;19;9254;-66
2024/01/18 07:33:26;;;;;;;;;;;19.00;53.50;;;;;;7317018;19;9898;-65
2024/01/18 07:36:09;;;;;;;;;;;18.90;53.50;;;;;;7315038;19;9285;-65
2024/01/18 07:38:38;;;;;;;;;;;18.90;53.50;;;;;;7316162;19;10497;-65
2024/01/18 07:41:19;;;;;;;;;;;18.80;53.60;;;;;;7317086;19;9292;-66
2024/01/18 07:44:03;;;;;;;;;;;18.80;53.70;;;;;;7319161;19;9248;-65
2024/01/18 07:46:43;;;;;;;;;;;18.70;53.60;;;;;;7316128;19;9468;-65
2024/01/18 07:49:24;;;;;;;;;;;18.70;53.70;;;;;;7318095;19;9742;-66
2024/01/18 07:51:53;;;;;;;;;;;18.60;53.70;;;;;;7318698;19;9280;-65
2024/01/18 07:54:34;;;;;;;;;;;18.60;53.80;;;;;;7317301;19;9241;-65
2024/01/18 07:57:16;;;;;;;;;;;18.50;53.90;;;;;;7319161;19;9222;-65
2024/01/18 08:00:03;;;;;;;;;;;18.50;53.90;;;;;;7317816;19;10223;-65
2024/01/18 08:02:44;;;;;;;;;;;18.40;54.00;;;;;;7315904;19;9564;-65
2024/01/18 08:05:13;;;;;;;;;;;18.40;54.00;;;;;;7318802;19;9440;-65
2024/01/18 08:07:42;;;;;;;;;;;18.40;54.00;;;;;;7319118;19;9478;-65
2024/01/18 08:10:23;;;;;;;;;;;18.30;54.00;;;;;;7317652;19;8944;-65
2024/01/18 08:13:04;;;;;;;;;;;18.30;54.00;;;;;;7314598;19;9288;-65
2024/01/18 08:15:48;;;;;;;;;;;18.40;54.00;;;;;;7317897;19;9484;-65
2024/01/18 08:18:29;;;;;;;;;;;18.40;53.90;;;;;;7318122;19;9372;-65
2024/01/18 08:21:10;;;;;;;;;;;18.40;53.90;;;;;;7314604;19;9226;-65
2024/01/18 08:23:51;;;;;;;;;;;18.40;53.90;;;;;;7317351;19;9384;-65
2024/01/18 08:26:17;;;;;;;;;;;18.50;53.80;;;;;;7313761;19;10386;-66
2024/01/18 08:29:06;;;;;;;;;;;18.50;53.70;;;;;;7314923;19;9297;-66
2024/01/18 08:31:37;;;;;;;;;;;18.50;53.70;;;;;;7317324;19;9578;-65
2024/01/18 08:34:07;;;;;;;;;;;18.50;53.70;;;;;;7308313;19;9969;-66
2024/01/18 08:36:36;;;;;;;;;;;18.60;53.90;;;;;;7314743;19;10762;-65
2024/01/18 08:39:07;;;;;;;;;;;18.60;53.80;;;;;;7314053;19;9743;-65
2024/01/18 08:41:36;;;;;;;;;;;18.60;53.80;;;;;;7313397;19;9189;-66
2024/01/18 08:44:05;;;;;;;;;;;18.70;53.70;;;;;;7316703;19;9244;-65
2024/01/18 08:46:36;;;;;;;;;;;18.70;53.70;;;;;;7317598;19;9863;-65
2024/01/18 08:49:05;;;;;;;;;;;18.80;53.70;;;;;;7316028;19;9596;-65
2024/01/18 08:51:34;;;;;;;;;;;18.80;53.60;;;;;;7315505;19;9607;-65
2024/01/18 08:54:03;;;;;;;;;;;18.90;53.50;;;;;;7314959;19;9507;-66
2024/01/18 08:56:32;;;;;;;;;;;19.00;53.60;;;;;;7316294;19;9207;-66
2024/01/18 08:59:01;;;;;;;;;;;19.10;53.60;;;;;;7314562;19;9226;-66
2024/01/18 09:01:30;;;;;;;;;;;19.10;53.40;;;;;;7320593;19;9441;-65
2024/01/18 09:04:02;;;;;;;;;;;19.20;53.40;;;;;;7322771;19;9406;-66
2024/01/18 09:06:31;;;;;;;;;;;19.30;53.30;;;;;;7321794;19;9225;-65
2024/01/18 09:09:02;;;;;;;;;;;19.30;53.30;;;;;;7325216;19;10716;-65
2024/01/18 09:11:31;;;;;;;;;;;19.30;53.30;;;;;;7320537;19;9242;-66
2024/01/18 09:14:01;;;;;;;;;;;19.30;53.30;;;;;;7319737;19;9250;-65
2024/01/18 09:16:30;;;;;;;;;;;19.30;53.30;;;;;;7321378;19;9222;-66
2024/01/18 09:19:02;;;;;;;;;;;19.30;53.30;;;;;;7321454;19;9166;-65
2024/01/18 09:21:31;;;;;;;;;;;19.30;53.40;;;;;;7320454;19;9460;-66
2024/01/18 09:24:00;;;;;;;;;;;19.30;53.20;;;;;;7322638;19;9225;-65
2024/01/18 09:26:29;;;;;;;;;;;19.30;53.30;;;;;;7324723;19;9659;-65
2024/01/18 09:28:58;;;;;;;;;;;19.30;53.10;;;;;;7321247;19;9222;-65
2024/01/18 09:31:27;;;;;;;;;;;19.30;53.10;;;;;;7321971;19;9561;-66
2024/01/18 09:33:55;;;;;;;;;;;19.30;52.90;;;;;;7321376;19;9174;-65
2024/01/18 09:36:27;;;;;;;;;;;19.30;52.80;;;;;;7323808;19;9283;-66
2024/01/18 09:38:56;;;;;;;;;;;19.40;52.90;;;;;;7319774;19;9474;-65
2024/01/18 09:41:27;;;;;;;;;;;19.30;52.80;;;;;;7320806;19;9456;-66
2024/01/18 09:43:58;;;;;;;;;;;19.30;52.70;;;;;;7323075;19;9210;-66
2024/01/18 09:46:28;;;;;;;;;;;19.30;52.70;;;;;;7322917;19;9138;-65
2024/01/18 09:48:59;;;;;;;;;;;19.30;52.70;;;;;;7321924;19;9448;-65
2024/01/18 09:51:31;;;;;;;;;;;19.30;52.80;;;;;;7323633;19;9256;-65
2024/01/18 09:54:00;;;;;;;;;;;19.30;52.80;;;;;;7321258;19;9273;-66
2024/01/18 09:56:31;;;;;;;;;;;19.30;52.80;;;;;;7324292;19;9194;-65
2024/01/18 09:59:22;;;;;;;;;;;19.30;52.80;;;;;;7320776;19;9183;-65
2024/01/18 10:01:52;;;;;;;;;;;19.20;52.80;;;;;;7322031;19;9220;-65
2024/01/18 10:04:22;;;;;;;;;;;19.20;52.80;;;;;;7321879;19;9481;-65
2024/01/18 10:06:53;;;;;;;;;;;19.20;52.90;;;;;;7322089;19;9331;-65
2024/01/18 10:09:22;;;;;;;;;;;19.20;52.90;;;;;;7322631;19;9247;-65
2024/01/18 10:11:51;;;;;;;;;;;19.10;53.00;;;;;;7319694;19;9419;-65
2024/01/18 10:14:20;;;;;;;;;;;19.10;52.90;;;;;;7322030;19;9544;-65
2024/01/18 10:16:49;;;;;;;;;;;19.10;53.00;;;;;;7321678;19;9261;-65
2024/01/18 10:19:18;;;;;;;;;;;19.10;53.00;;;;;;7321413;19;9258;-65
2024/01/18 10:21:49;;;;;;;;;;;19.00;53.00;;;;;;7323290;19;9384;-65
2024/01/18 10:24:21;;;;;;;;;;;19.00;53.00;;;;;;7320283;19;10291;-65
2024/01/18 10:26:50;;;;;;;;;;;19.00;53.10;;;;;;7321750;19;11352;-65
2024/01/18 10:29:22;;;;;;;;;;;19.00;53.20;;;;;;7321037;19;9127;-65
2024/01/18 10:31:51;;;;;;;;;;;19.00;53.10;;;;;;7320076;19;9481;-65
2024/01/18 10:34:20;;;;;;;;;;;19.00;53.10;;;;;;7321907;19;9246;-66
2024/01/18 10:36:48;;;;;;;;;;;19.00;53.10;;;;;;7317242;19;9236;-65
2024/01/18 10:39:21;;;;;;;;;;;19.00;53.30;;;;;;7319446;19;9725;-65
2024/01/18 10:42:12;;;;;;;;;;;19.00;53.20;;;;;;7319562;19;10191;-65
2024/01/18 10:44:41;;;;;;;;;;;19.00;53.30;;;;;;7320540;19;9485;-65
2024/01/18 10:47:12;;;;;;;;;;;18.90;53.30;;;;;;7321528;19;9271;-66
2024/01/18 10:49:42;;;;;;;;;;;18.80;53.30;;;;;;7319934;19;9480;-66
2024/01/18 10:52:13;;;;;;;;;;;18.70;53.50;;;;;;7320153;19;9127;-67
2024/01/18 10:54:47;;;;;;;;;;;18.80;53.50;;;;;;7319555;19;9638;-65
2024/01/18 10:57:16;;;;;;;;;;;18.70;53.60;;;;;;7319219;19;9685;-65
2024/01/18 10:59:48;;;;;;;;;;;18.70;53.70;;;;;;7317923;19;9733;-66
2024/01/18 11:02:19;;;;;;;;;;;18.60;53.70;;;;;;7319217;19;9194;-66
2024/01/18 11:04:49;;;;;;;;;;;18.60;53.70;;;;;;7318020;19;9309;-66
2024/01/18 11:07:19;;;;;;;;;;;18.70;53.80;;;;;;7320805;19;9138;-65
2024/01/18 11:09:50;;;;;;;;;;;18.80;54.10;;;;;;7318631;19;9312;-66
2024/01/18 11:12:20;;;;;;;;;;;18.80;53.90;;;;;;7318606;19;9536;-66
2024/01/18 11:14:50;;;;;;;;;;;19.00;53.90;;;;;;7318650;19;9190;-65
2024/01/18 11:17:21;;;;;;;;;;;19.10;53.60;;;;;;7321250;19;9600;-65
2024/01/18 11:19:50;;;;;;;;;;;19.20;54.20;;;;;;7319280;19;9533;-65
2024/01/18 11:22:30;;;;;;;;;;;19.40;53.40;;;;;;7315365;19;9501;-67
2024/01/18 11:25:07;;;;;;;;;;;19.50;53.30;;;;;;7317368;19;11778;-68
2024/01/18 11:27:40;;;;;;;;;;;19.60;53.30;;;;;;7319107;19;9392;-67
2024/01/18 11:30:38;;;;;;;;;;;19.60;53.30;;;;;;7317472;19;9234;-67
2024/01/18 11:33:27;;;;;;;;;;;19.60;53.50;;;;;;7315136;19;9531;-67
2024/01/18 11:35:57;;;;;;;;;;;19.70;53.70;;;;;;7315275;19;10717;-73
2024/01/18 11:38:28;;;;;;;;;;;19.60;53.70;;;;;;7319113;19;9278;-73
2024/01/18 11:41:11;;;;;;;;;;;19.60;53.80;;;;;;7317044;19;9730;-73
2024/01/18 11:44:00;;;;;;;;;;;19.60;53.80;;;;;;7315979;19;9310;-73
2024/01/18 11:46:36;;;;;;;;;;;19.60;53.80;;;;;;7320250;19;9122;-67
2024/01/18 11:49:06;;;;;;;;;;;19.60;53.90;;;;;;7314193;19;9245;-73
2024/01/18 11:51:36;;;;;;;;;;;19.70;54.00;;;;;;7319781;19;9501;-72
2024/01/18 11:54:07;;;;;;;;;;;19.70;54.00;;;;;;7317184;19;9275;-74
2024/01/18 11:56:40;;;;;;;;;;;19.70;54.00;;;;;;7316479;19;9273;-72
2024/01/18 11:59:11;;;;;;;;;;;19.70;54.00;;;;;;7315758;19;9468;-72
2024/01/18 12:01:40;;;;;;;;;;;19.70;54.10;;;;;;7317556;19;9480;-72
2024/01/18 12:04:09;;;;;;;;;;;19.70;54.20;;;;;;7319420;19;9251;-76
2024/01/18 12:06:39;;;;;;;;;;;19.70;54.20;;;;;;7319149;19;9135;-76
2024/01/18 12:09:08;;;;;;;;;;;19.70;54.20;;;;;;7319700;19;9468;-76
2024/01/18 12:12:00;;;;;;;;;;;19.70;54.30;;;;;;7316431;19;9364;-76
2024/01/18 12:14:29;;;;;;;;;;;19.70;54.30;;;;;;7317759;19;9473;-76
2024/01/18 12:17:00;;;;;;;;;;;19.70;54.30;;;;;;7319323;19;9381;-76
2024/01/18 12:19:33;;;;;;;;;;;19.70;54.30;;;;;;7313927;19;10128;-76
2024/01/18 12:22:04;;;;;;;;;;;19.80;54.40;;;;;;7319320;19;9844;-76
2024/01/18 12:24:34;;;;;;;;;;;19.80;54.50;;;;;;7315240;19;10534;-76
2024/01/18 12:27:07;;;;;;;;;;;19.80;54.50;;;;;;7316335;19;9249;-73
2024/01/18 12:29:38;;;;;;;;;;;19.80;54.50;;;;;;7317350;19;9034;-69
2024/01/18 12:32:08;;;;;;;;;;;19.80;54.60;;;;;;7314887;19;9376;-69
2024/01/18 12:34:38;;;;;;;;;;;19.80;54.60;;;;;;7314483;19;9853;-69
2024/01/18 12:37:07;;;;;;;;;;;19.80;54.60;;;;;;7316236;19;10375;-69
2024/01/18 12:39:36;;;;;;;;;;;19.80;54.60;;;;;;7313514;19;9442;-70
2024/01/18 12:42:08;;;;;;;;;;;19.90;54.70;;;;;;7315995;19;9368;-69
2024/01/18 12:44:38;;;;;;;;;;;19.80;54.70;;;;;;7317566;19;9313;-69
2024/01/18 12:47:07;;;;;;;;;;;19.80;54.70;;;;;;7316313;19;9306;-69
2024/01/18 12:49:36;;;;;;;;;;;19.80;54.90;;;;;;7315596;19;9628;-69
2024/01/18 12:52:06;;;;;;;;;;;19.80;54.90;;;;;;7314894;19;9241;-69
2024/01/18 12:54:36;;;;;;;;;;;19.80;54.90;;;;;;7315916;19;9352;-69
2024/01/18 12:57:09;;;;;;;;;;;19.80;54.90;;;;;;7315876;19;9270;-69
2024/01/18 12:59:38;;;;;;;;;;;19.80;54.90;;;;;;7315505;19;9262;-69
2024/01/18 13:02:07;;;;;;;;;;;19.80;55.00;;;;;;7316568;19;9166;-69
2024/01/18 13:04:38;;;;;;;;;;;19.90;55.10;;;;;;7315199;19;9266;-69
2024/01/18 13:07:11;;;;;;;;;;;19.90;55.10;;;;;;7313583;19;9493;-69
2024/01/18 13:09:42;;;;;;;;;;;19.90;55.10;;;;;;7313404;19;9487;-69
2024/01/18 13:12:13;;;;;;;;;;;19.90;55.10;;;;;;7315279;19;9404;-69
2024/01/18 13:14:42;;;;;;;;;;;19.90;55.10;;;;;;7314030;19;9544;-69
2024/01/18 13:17:11;;;;;;;;;;;19.90;55.10;;;;;;7317095;19;9466;-69
2024/01/18 13:19:41;;;;;;;;;;;19.80;55.10;;;;;;7314636;19;9314;-69
2024/01/18 13:22:10;;;;;;;;;;;19.80;55.20;;;;;;7317444;19;9519;-69
2024/01/18 13:24:39;;;;;;;;;;;19.80;55.30;;;;;;7314599;19;9416;-69
2024/01/18 13:27:08;;;;;;;;;;;19.80;55.20;;;;;;7314451;19;10665;-69
2024/01/18 13:29:40;;;;;;;;;;;19.80;55.30;;;;;;7314784;19;9651;-69
2024/01/18 13:32:09;;;;;;;;;;;19.80;55.30;;;;;;7315982;19;9146;-69
2024/01/18 13:34:38;;;;;;;;;;;19.70;55.30;;;;;;7314306;19;9417;-69
2024/01/18 13:37:07;;;;;;;;;;;19.70;55.30;;;;;;7310457;19;9141;-69
2024/01/18 13:39:36;;;;;;;;;;;19.70;55.30;;;;;;7313865;19;10069;-69
2024/01/18 13:42:05;;;;;;;;;;;19.60;55.30;;;;;;7309624;19;9944;-69
2024/01/18 13:44:34;;;;;;;;;;;19.60;55.40;;;;;;7308710;19;11120;-68
2024/01/18 13:47:07;;;;;;;;;;;19.60;55.50;;;;;;7322418;19;9287;-69
2024/01/18 13:49:37;;;;;;;;;;;19.50;55.60;;;;;;7322339;19;9539;-68
2024/01/18 13:52:06;;;;;;;;;;;19.50;55.70;;;;;;7314145;19;9479;-68
2024/01/18 13:54:35;;;;;;;;;;;19.50;55.80;;;;;;7320249;19;9489;-68
2024/01/18 13:57:05;;;;;;;;;;;19.50;55.80;;;;;;7320962;19;9465;-69
2024/01/18 13:59:34;;;;;;;;;;;19.50;55.80;;;;;;7321349;19;9254;-68
2024/01/18 14:02:03;;;;;;;;;;;19.50;55.80;;;;;;7321496;19;10829;-68
2024/01/18 14:04:35;;;;;;;;;;;19.50;55.90;;;;;;7321417;19;9148;-69
2024/01/18 14:07:04;;;;;;;;;;;19.50;55.80;;;;;;7319745;19;9341;-68
2024/01/18 14:09:33;;;;;;;;;;;19.50;55.90;;;;;;7322942;19;9142;-68
2024/01/18 14:12:02;;;;;;;;;;;19.50;55.90;;;;;;7321490;19;9186;-68
2024/01/18 14:14:31;;;;;;;;;;;19.60;55.90;;;;;;7319520;19;9461;-68
2024/01/18 14:17:00;;;;;;;;;;;19.60;55.90;;;;;;7321085;19;9284;-68
2024/01/18 14:19:29;;;;;;;;;;;19.50;55.90;;;;;;7320958;19;9292;-69
2024/01/18 14:22:00;;;;;;;;;;;19.50;55.90;;;;;;7322083;19;9477;-68
2024/01/18 14:24:30;;;;;;;;;;;19.50;55.90;;;;;;7319615;19;9428;-68
2024/01/18 14:26:59;;;;;;;;;;;19.50;55.90;;;;;;7318270;19;9667;-68
2024/01/18 14:29:28;;;;;;;;;;;19.60;56.00;;;;;;7321145;19;9502;-68
2024/01/18 14:31:57;;;;;;;;;;;19.50;56.00;;;;;;7322505;19;9277;-69
2024/01/18 14:34:27;;;;;;;;;;;19.60;56.00;;;;;;7320328;19;9284;-69
2024/01/18 14:36:56;;;;;;;;;;;19.60;56.00;;;;;;7321843;19;9677;-69
2024/01/18 14:39:29;;;;;;;;;;;19.60;56.00;;;;;;7318440;19;9210;-69
2024/01/18 14:41:58;;;;;;;;;;;19.60;56.00;;;;;;7321233;19;9286;-68
2024/01/18 14:44:28;;;;;;;;;;;19.60;55.90;;;;;;7321757;19;9433;-69
2024/01/18 14:46:57;;;;;;;;;;;19.60;55.90;;;;;;7321467;19;9498;-69
2024/01/18 14:49:27;;;;;;;;;;;19.60;55.90;;;;;;7320882;19;10281;-69
2024/01/18 14:51:56;;;;;;;;;;;19.60;55.90;;;;;;7320095;19;9261;-68
2024/01/18 14:54:28;;;;;;;;;;;19.60;55.90;;;;;;7320744;19;9660;-69
2024/01/18 14:56:56;;;;;;;;;;;19.60;55.90;;;;;;7317060;19;9481;-68
2024/01/18 14:59:25;;;;;;;;;;;19.60;56.60;;;;;;7319417;19;9511;-69
2024/01/18 15:01:55;;;;;;;;;;;19.60;56.00;;;;;;7318227;19;9488;-69
2024/01/18 15:04:24;;;;;;;;;;;19.50;55.90;;;;;;7320079;19;9139;-69
2024/01/18 15:06:53;;;;;;;;;;;19.50;56.00;;;;;;7319202;19;9328;-68
2024/01/18 15:09:22;;;;;;;;;;;19.60;56.00;;;;;;7319226;19;9520;-69
2024/01/18 15:11:54;;;;;;;;;;;19.60;56.00;;;;;;7318935;19;9007;-69
2024/01/18 15:14:23;;;;;;;;;;;19.50;56.10;;;;;;7317229;19;9333;-69